KEGI/EGI METAR and TAF weather

Enter ICAO airport designator
Station Type Date Time Source
KEGI METAR 2019/06/16 07:31 UTC NOAA

KEGI 160731Z AUTO 00000KT 1 5/8SM BR CLR 21/21 A3000 RMK AO2 VIS 1 1/4V2 SLP158 $


Station Type Date Time Source
KEGI Decoded METAR 2019/06/16 07:31 UTC NOAA

Duke Field / Eglin Auxiliary, FL, United States (KEGI) 30-39N 086-31W
Jun 16, 2019 - 03:31 AM EDT / 2019.06.16 0731 UTC
Wind: Calm:0
Visibility: 1 5/8 mile(s):0
Sky conditions: clear
Weather: mist
Temperature: 69 F (21 C)
Dew Point: 69 F (21 C)
Relative Humidity: 100%
Pressure (altimeter): 30 in. Hg (1015 hPa)
ob: KEGI 160731Z AUTO 00000KT 1 5/8SM BR CLR 21/21 A3000 RMK AO2 VIS 1 1/4V2 SLP158
cycle: 7

Station Type Date Time Source
KEGI TAF 2019/06/15 01:08 UTC NOAA

TAF KEGI 150100Z 1501/1607 18006KT 9999 FEW250 QNH3006INS
BECMG 1515/1516 14009KT 9999 SCT040 SCT250 QNH3010INS
BECMG 1601/1602 20006KT 9999 FEW250 QNH3005INS TX32/1520Z TN20/1510Z LAST NO
AMDS AFT 1505 NEXT 1709

Example: see airport list